createdAt,value
2019-01-26T00:00:49.493Z,19.87
2019-01-26T00:03:20.732Z,15.77
2019-01-26T00:05:52.005Z,17.43
2019-01-26T00:08:23.568Z,17.57
2019-01-26T00:10:54.930Z,16.27
2019-01-26T00:13:26.206Z,17.90
2019-01-26T00:15:57.484Z,15.00
2019-01-26T00:18:28.737Z,17.00
2019-01-26T00:21:00.198Z,16.97
2019-01-26T00:23:31.681Z,16.00
2019-01-26T00:26:02.952Z,16.80
2019-01-26T00:28:34.213Z,15.67
2019-01-26T00:31:05.720Z,16.10
2019-01-26T00:33:43.103Z,16.50
2019-01-26T00:36:11.633Z,12.07
2019-01-26T00:38:43.201Z,14.00
2019-01-26T00:41:20.299Z,18.83
2019-01-26T00:43:51.551Z,16.60
2019-01-26T00:46:28.384Z,19.03
2019-01-26T00:48:55.769Z,16.53
2019-01-26T00:51:27.048Z,14.17
2019-01-26T00:53:58.296Z,16.97
2019-01-26T00:56:29.529Z,16.93
2019-01-26T00:59:01.821Z,19.37
2019-01-26T01:01:33.027Z,20.63
2019-01-26T01:04:04.788Z,17.50
2019-01-26T01:06:36.048Z,23.43
2019-01-26T01:09:09.621Z,16.47
2019-01-26T01:11:41.222Z,13.73
2019-01-26T01:14:12.645Z,16.20
2019-01-26T01:16:44.045Z,16.23
2019-01-26T01:19:15.289Z,19.83
2019-01-26T01:21:47.563Z,19.47
2019-01-26T01:24:19.914Z,17.77
2019-01-26T01:26:51.145Z,16.00
2019-01-26T01:29:22.409Z,15.67
2019-01-26T01:31:54.795Z,20.07
2019-01-26T01:34:27.233Z,16.87
2019-01-26T01:36:58.494Z,15.60
2019-01-26T01:39:29.815Z,17.97
2019-01-26T01:42:01.117Z,20.40
2019-01-26T01:44:32.408Z,15.20
2019-01-26T01:47:03.665Z,13.97
2019-01-26T01:49:34.920Z,18.43
2019-01-26T01:52:06.247Z,15.93
2019-01-26T01:54:37.531Z,18.07
2019-01-26T01:57:09.663Z,17.20
2019-01-26T01:59:40.909Z,15.67
2019-01-26T03:02:47.057Z,17.43
2019-01-26T03:05:19.308Z,14.03
2019-01-26T03:07:50.877Z,16.07
2019-01-26T03:10:23.369Z,18.27
2019-01-26T03:12:54.685Z,17.90
2019-01-26T03:15:26.228Z,16.43
2019-01-26T03:17:57.484Z,16.50
2019-01-26T03:20:28.758Z,15.00
2019-01-26T03:23:00.009Z,17.20
2019-01-26T03:25:31.287Z,15.13
2019-01-26T03:28:02.548Z,17.10
2019-01-26T03:30:33.819Z,16.00
2019-01-26T03:33:05.065Z,15.40
2019-01-26T03:35:36.366Z,15.97
2019-01-26T03:38:07.618Z,20.80
2019-01-26T03:40:38.877Z,18.80
2019-01-26T03:43:10.135Z,16.13
2019-01-26T03:45:41.393Z,16.73
2019-01-26T03:48:12.743Z,18.23
2019-01-26T03:50:44.016Z,18.97
2019-01-26T03:53:15.257Z,22.03
2019-01-26T03:55:46.600Z,17.33
2019-01-26T03:58:18.929Z,15.47
2019-01-26T04:00:50.193Z,15.63
2019-01-26T04:03:21.574Z,17.37
2019-01-26T04:05:53.043Z,15.33
2019-01-26T04:08:24.302Z,17.37
2019-01-26T04:10:55.955Z,15.83
2019-01-26T04:13:27.291Z,16.63
2019-01-26T04:15:58.802Z,20.13
2019-01-26T04:18:30.238Z,18.40
2019-01-26T04:21:01.586Z,18.13
2019-01-26T04:23:34.099Z,14.57
2019-01-26T04:26:05.586Z,18.07
2019-01-26T04:28:36.956Z,16.97
2019-01-26T04:31:08.199Z,16.87
2019-01-26T04:33:39.518Z,18.33
2019-01-26T04:36:10.807Z,14.30
2019-01-26T04:38:42.152Z,17.47
2019-01-26T04:41:13.473Z,14.90
2019-01-26T04:43:44.784Z,16.47
2019-01-26T04:46:16.127Z,20.77
2019-01-26T04:48:48.824Z,18.10
2019-01-26T04:51:20.115Z,17.53
2019-01-26T04:53:51.471Z,23.25
2019-01-26T04:56:22.763Z,18.37
2019-01-26T04:58:54.063Z,15.77
2019-01-26T05:01:25.399Z,16.13
2019-01-26T05:03:57.035Z,13.97
2019-01-26T05:06:29.454Z,19.27
2019-01-26T05:09:00.767Z,18.40
2019-01-26T05:11:33.646Z,18.87
2019-01-26T05:14:05.150Z,15.23
2019-01-26T05:16:36.470Z,18.00
2019-01-26T05:19:08.119Z,16.97
2019-01-26T05:21:39.448Z,16.20
2019-01-26T05:24:10.755Z,19.60
2019-01-26T05:26:42.165Z,17.77
2019-01-26T05:29:13.510Z,16.20
2019-01-26T05:31:44.822Z,14.97
2019-01-26T05:34:16.109Z,14.27
2019-01-26T05:36:47.490Z,13.33
2019-01-26T05:39:20.041Z,13.70
2019-01-26T05:41:51.617Z,14.67
2019-01-26T05:44:23.175Z,16.87
2019-01-26T05:46:54.534Z,16.23
2019-01-26T05:49:25.831Z,17.20
2019-01-26T05:51:57.251Z,15.90
2019-01-26T05:54:28.491Z,15.10
2019-01-26T05:56:59.728Z,14.13
2019-01-26T05:59:30.989Z,13.27
2019-01-26T06:02:02.213Z,17.93
2019-01-26T06:04:33.492Z,14.23
2019-01-26T06:07:04.719Z,12.87
2019-01-26T06:09:35.969Z,14.87
2019-01-26T06:12:07.176Z,14.53
2019-01-26T06:14:38.447Z,13.87
2019-01-26T06:17:09.657Z,14.13
2019-01-26T06:19:40.917Z,13.10
2019-01-26T06:22:12.198Z,13.17
2019-01-26T06:24:43.455Z,12.10
2019-01-26T06:27:14.705Z,14.33
2019-01-26T06:29:46.122Z,17.23
2019-01-26T06:32:17.541Z,15.00
2019-01-26T06:34:48.765Z,17.60
2019-01-26T06:37:20.125Z,15.70
2019-01-26T06:39:51.542Z,16.87
2019-01-26T06:42:22.942Z,16.17
2019-01-26T06:44:54.188Z,14.53
2019-01-26T06:47:25.617Z,13.97
2019-01-26T06:49:56.914Z,15.80
2019-01-26T06:52:28.333Z,14.67
2019-01-26T06:54:59.560Z,14.70
2019-01-26T06:57:30.824Z,13.10
2019-01-26T07:00:02.076Z,13.37
2019-01-26T07:02:33.362Z,14.43
2019-01-26T07:05:22.407Z,14.33
2019-01-26T07:07:53.694Z,16.67
2019-01-26T07:10:24.936Z,15.97
2019-01-26T07:12:56.384Z,17.87
2019-01-26T07:15:27.645Z,17.30
2019-01-26T07:17:59.012Z,16.43
2019-01-26T07:20:30.285Z,15.73
2019-01-26T07:23:01.541Z,15.63
2019-01-26T07:25:32.815Z,18.90
2019-01-26T07:28:05.057Z,17.93
2019-01-26T07:30:36.385Z,14.87
2019-01-26T07:33:07.711Z,18.40
2019-01-26T07:35:39.046Z,18.77
2019-01-26T07:38:13.785Z,18.70
2019-01-26T07:40:43.240Z,17.27
2019-01-26T07:43:14.473Z,16.50
2019-01-26T07:45:45.768Z,19.73
2019-01-26T07:48:18.000Z,18.77
2019-01-26T07:50:49.874Z,16.80
2019-01-26T07:53:21.087Z,17.50
2019-01-26T07:55:52.365Z,18.10
2019-01-26T07:58:23.773Z,16.37
2019-01-26T08:00:59.431Z,17.77
2019-01-26T08:03:30.721Z,17.10
2019-01-26T08:06:02.013Z,17.87
2019-01-26T08:08:33.433Z,16.03
2019-01-26T08:11:04.784Z,17.90
2019-01-26T08:13:36.142Z,19.97
2019-01-26T08:16:07.673Z,18.77
2019-01-26T08:18:39.362Z,17.70
2019-01-26T08:21:11.357Z,17.57
2019-01-26T08:23:46.256Z,19.90
2019-01-26T08:26:17.516Z,17.07
2019-01-26T08:28:48.845Z,19.03
2019-01-26T08:31:20.149Z,17.97
2019-01-26T08:33:51.449Z,17.87
2019-01-26T08:36:22.813Z,19.97
2019-01-26T08:38:54.564Z,17.37
2019-01-26T08:41:26.388Z,17.47
2019-01-26T08:43:57.671Z,16.43
2019-01-26T08:46:29.021Z,16.47
2019-01-26T08:49:00.725Z,14.73
2019-01-26T08:51:32.009Z,16.60
2019-01-26T08:54:03.244Z,17.07
2019-01-26T08:56:34.625Z,15.20
2019-01-26T08:59:06.086Z,14.93
2019-01-26T09:01:38.292Z,15.53
2019-01-26T09:04:22.706Z,14.73
2019-01-26T09:06:57.729Z,15.63
2019-01-26T09:09:28.945Z,15.30
2019-01-26T09:12:00.441Z,15.07
2019-01-26T09:14:31.675Z,12.90
2019-01-26T09:17:02.984Z,13.87
2019-01-26T09:19:34.241Z,18.27
2019-01-26T09:22:05.774Z,16.63
2019-01-26T09:24:37.419Z,16.37
2019-01-26T09:27:09.063Z,13.93
2019-01-26T09:29:40.413Z,13.83
2019-01-26T09:32:11.873Z,14.47
2019-01-26T09:34:43.213Z,14.20
2019-01-26T09:37:14.544Z,15.70
2019-01-26T09:39:45.877Z,12.70
2019-01-26T09:42:17.257Z,15.40
2019-01-26T09:44:49.606Z,16.97
2019-01-26T09:47:23.392Z,13.83
2019-01-26T09:49:55.390Z,16.90
2019-01-26T09:52:26.734Z,14.73
2019-01-26T09:54:58.138Z,16.50
2019-01-26T09:57:29.449Z,15.97
2019-01-26T10:00:00.775Z,13.30
2019-01-26T10:02:32.057Z,15.80
2019-01-26T10:05:24.212Z,12.70
2019-01-26T10:07:55.526Z,14.33
2019-01-26T10:10:27.101Z,12.03
2019-01-26T10:12:58.746Z,11.00
2019-01-26T10:15:31.304Z,11.53
2019-01-26T10:18:02.694Z,10.83
2019-01-26T10:20:35.255Z,13.10
2019-01-26T10:23:06.910Z,10.77
2019-01-26T10:25:39.622Z,13.27
2019-01-26T10:28:11.234Z,12.23
2019-01-26T10:30:49.178Z,13.03
2019-01-26T10:33:20.714Z,13.00
2019-01-26T10:36:16.665Z,11.40
2019-01-26T10:38:52.214Z,11.80
2019-01-26T10:41:39.329Z,10.43
2019-01-26T10:44:17.714Z,11.47
2019-01-26T10:46:49.263Z,13.27
2019-01-26T10:49:20.560Z,10.67
2019-01-26T10:51:52.911Z,13.57
2019-01-26T10:54:26.045Z,11.10
2019-01-26T10:56:57.427Z,12.07
2019-01-26T10:59:28.786Z,11.13
2019-01-26T11:02:00.136Z,11.87
2019-01-26T11:04:31.446Z,10.27
2019-01-26T11:07:03.112Z,9.87
2019-01-26T11:09:34.613Z,9.23
2019-01-26T11:12:06.982Z,10.57
2019-01-26T11:14:38.837Z,11.30
2019-01-26T11:17:10.183Z,8.27
2019-01-26T11:19:41.503Z,9.53
2019-01-26T11:22:12.875Z,9.17
2019-01-26T11:24:44.927Z,9.63
2019-01-26T11:27:16.360Z,9.23
2019-01-26T11:29:47.761Z,10.33
2019-01-26T11:32:19.261Z,9.80
2019-01-26T11:34:50.646Z,12.03
2019-01-26T11:37:22.141Z,11.90
2019-01-26T11:40:02.507Z,11.67
2019-01-26T11:42:33.869Z,9.80
2019-01-26T11:45:20.355Z,11.07
2019-01-26T11:47:52.089Z,9.13
2019-01-26T11:50:29.983Z,10.97
2019-01-26T11:53:01.282Z,10.73
2019-01-26T11:56:06.973Z,11.17
2019-01-26T11:58:38.347Z,12.70
2019-01-26T12:01:29.653Z,11.67
2019-01-26T12:04:23.713Z,11.87
2019-01-26T12:07:12.420Z,10.57
2019-01-26T12:09:43.942Z,12.37
2019-01-26T12:12:15.317Z,11.00
2019-01-26T12:14:46.623Z,16.07
2019-01-26T12:17:17.890Z,10.80
2019-01-26T12:19:49.193Z,11.83
2019-01-26T12:22:20.947Z,12.63
2019-01-26T12:24:52.264Z,11.93
2019-01-26T12:27:23.620Z,13.57
2019-01-26T12:29:55.208Z,13.30
2019-01-26T12:32:26.631Z,14.13
2019-01-26T12:34:57.938Z,12.00
2019-01-26T12:37:29.235Z,13.00
2019-01-26T12:40:00.529Z,13.70
2019-01-26T12:42:31.836Z,13.47
2019-01-26T12:45:03.923Z,12.13
2019-01-26T12:47:35.319Z,12.30
2019-01-26T12:50:07.502Z,13.47
2019-01-26T12:52:38.880Z,13.07
2019-01-26T12:55:11.659Z,13.27
2019-01-26T12:57:43.205Z,12.70
2019-01-26T13:00:17.781Z,11.87
2019-01-26T13:02:49.560Z,11.10
2019-01-26T13:05:20.972Z,13.73
2019-01-26T13:07:52.410Z,9.93
2019-01-26T13:10:27.133Z,10.23
2019-01-26T13:12:58.383Z,10.73
2019-01-26T13:15:29.749Z,11.87
2019-01-26T13:18:01.008Z,12.87
2019-01-26T13:20:32.263Z,11.03
2019-01-26T13:23:03.564Z,11.27
2019-01-26T13:25:35.264Z,11.03
2019-01-26T13:28:07.555Z,11.53
2019-01-26T13:30:38.902Z,10.40
2019-01-26T13:33:10.169Z,13.30
2019-01-26T13:35:41.426Z,10.83
2019-01-26T13:38:12.813Z,13.10
2019-01-26T13:40:44.089Z,21.37
2019-01-26T13:43:15.462Z,10.63
2019-01-26T13:45:46.707Z,9.80
2019-01-26T13:48:17.945Z,9.60
2019-01-26T13:50:49.226Z,9.57
2019-01-26T13:53:20.432Z,10.77
2019-01-26T13:55:51.860Z,10.43
2019-01-26T13:58:23.176Z,11.57
2019-01-26T14:00:54.442Z,10.63
2019-01-26T14:03:25.670Z,10.27
2019-01-26T14:05:57.921Z,10.33
2019-01-26T14:08:29.633Z,8.97
2019-01-26T14:11:01.297Z,10.17
2019-01-26T14:13:33.610Z,10.87
2019-01-26T14:16:05.346Z,10.00
2019-01-26T14:18:36.573Z,11.63
2019-01-26T14:21:07.856Z,9.80
2019-01-26T14:23:39.129Z,10.93
2019-01-26T14:26:10.476Z,9.87
2019-01-26T14:28:41.726Z,10.47
2019-01-26T14:31:13.045Z,11.53
2019-01-26T14:33:44.489Z,13.70
2019-01-26T14:36:15.757Z,12.03
2019-01-26T14:38:47.008Z,11.93
2019-01-26T14:41:18.700Z,10.80
2019-01-26T14:43:49.978Z,10.43
2019-01-26T14:46:21.293Z,13.00
2019-01-26T14:48:52.713Z,10.00
2019-01-26T14:51:24.012Z,12.77
2019-01-26T14:53:55.288Z,12.43
2019-01-26T14:56:26.732Z,9.80
2019-01-26T14:58:57.985Z,9.60
2019-01-26T15:01:29.232Z,11.67
2019-01-26T15:04:00.584Z,11.93
2019-01-26T15:06:32.250Z,10.77
2019-01-26T15:09:05.289Z,11.00
2019-01-26T15:11:37.006Z,11.33
2019-01-26T15:14:08.303Z,13.90
2019-01-26T15:16:39.529Z,13.27
2019-01-26T15:19:11.012Z,15.20
2019-01-26T15:21:43.229Z,15.13
2019-01-26T15:24:14.543Z,26.13
2019-01-26T15:26:45.810Z,29.67
2019-01-26T15:29:17.054Z,11.80
2019-01-26T15:31:49.481Z,10.90
2019-01-26T15:34:20.697Z,9.30
2019-01-26T15:36:51.969Z,9.93
2019-01-26T15:39:23.233Z,10.37
2019-01-26T15:41:55.004Z,8.73
2019-01-26T15:44:26.645Z,10.40
2019-01-26T15:46:58.084Z,10.63
2019-01-26T15:49:30.320Z,10.67
2019-01-26T15:52:01.612Z,9.70
2019-01-26T15:54:32.947Z,10.90
2019-01-26T15:57:04.392Z,11.07
2019-01-26T15:59:35.648Z,10.50
2019-01-26T16:02:07.018Z,11.57
2019-01-26T16:04:38.337Z,11.57
2019-01-26T16:07:09.675Z,10.90
2019-01-26T16:09:40.941Z,12.13
2019-01-26T16:12:12.233Z,12.30
2019-01-26T16:14:43.789Z,11.60
2019-01-26T16:17:15.926Z,12.97
2019-01-26T16:19:47.488Z,14.10
2019-01-26T16:22:18.992Z,15.43
2019-01-26T16:24:50.257Z,14.23
2019-01-26T16:27:21.525Z,15.17
2019-01-26T16:29:52.816Z,13.67
2019-01-26T16:32:24.037Z,15.13
2019-01-26T16:34:55.302Z,12.37
2019-01-26T16:37:26.970Z,11.67
2019-01-26T16:39:58.404Z,13.53
2019-01-26T16:42:30.097Z,14.13
2019-01-26T16:45:01.945Z,10.77
2019-01-26T16:47:33.462Z,12.63
2019-01-26T16:50:05.302Z,11.97
2019-01-26T16:52:36.553Z,9.77
2019-01-26T16:55:08.809Z,17.37
2019-01-26T16:57:40.225Z,13.17
2019-01-26T17:00:15.520Z,13.67
2019-01-26T17:02:46.789Z,12.90
2019-01-26T17:05:18.122Z,11.47
2019-01-26T17:07:49.481Z,12.23
2019-01-26T17:10:23.131Z,10.87
2019-01-26T17:12:54.441Z,11.83
2019-01-26T17:15:25.946Z,12.20
2019-01-26T17:17:57.416Z,49.40
2019-01-26T17:20:34.930Z,12.43
2019-01-26T17:23:05.848Z,12.33
2019-01-26T17:25:37.420Z,12.30
2019-01-26T17:28:08.790Z,12.93
2019-01-26T17:30:41.390Z,11.37
2019-01-26T17:33:13.105Z,12.57
2019-01-26T17:35:45.797Z,10.87
2019-01-26T17:38:17.224Z,9.50
2019-01-26T17:40:54.329Z,11.20
2019-01-26T17:43:21.373Z,7.97
2019-01-26T17:45:53.068Z,8.40
2019-01-26T17:48:24.324Z,9.60
2019-01-26T17:50:55.581Z,9.23
2019-01-26T17:53:26.849Z,8.93
2019-01-26T17:55:58.213Z,11.57
2019-01-26T17:58:29.482Z,10.43
2019-01-26T18:01:01.696Z,9.87
2019-01-26T18:03:32.937Z,8.00
2019-01-26T18:06:05.206Z,9.30
2019-01-26T18:08:36.709Z,10.27
2019-01-26T18:11:08.080Z,8.73
2019-01-26T18:13:39.363Z,8.47
2019-01-26T18:16:11.484Z,8.90
2019-01-26T18:18:42.727Z,10.07
2019-01-26T18:21:13.989Z,7.50
2019-01-26T18:23:46.303Z,7.87
2019-01-26T18:26:18.062Z,8.50
2019-01-26T18:28:49.302Z,8.50
2019-01-26T18:31:22.340Z,10.27
2019-01-26T18:33:54.724Z,8.83
2019-01-26T18:36:26.094Z,7.67
2019-01-26T18:38:59.706Z,7.80
2019-01-26T18:41:32.027Z,7.13
2019-01-26T18:44:03.274Z,6.70
2019-01-26T18:46:34.687Z,7.80
2019-01-26T18:49:06.118Z,7.77
2019-01-26T18:51:37.375Z,6.57
2019-01-26T18:54:08.855Z,7.00
2019-01-26T18:56:40.101Z,6.73
2019-01-26T18:59:15.888Z,8.13
2019-01-26T19:01:48.298Z,8.00
2019-01-26T19:04:26.517Z,6.37
2019-01-26T19:06:57.944Z,6.87
2019-01-26T19:09:30.032Z,7.00
2019-01-26T19:12:01.284Z,6.70
2019-01-26T19:14:33.274Z,6.10
2019-01-26T19:17:04.624Z,5.47
2019-01-26T19:19:35.871Z,4.93
2019-01-26T19:22:08.381Z,5.30
2019-01-26T19:24:39.686Z,5.60
2019-01-26T19:27:22.979Z,5.60
2019-01-26T19:30:05.899Z,4.67
2019-01-26T19:32:47.090Z,5.60
2019-01-26T19:35:18.876Z,5.10
2019-01-26T19:37:50.180Z,5.50
2019-01-26T19:40:21.899Z,6.40
2019-01-26T19:42:55.625Z,5.80
2019-01-26T19:45:27.173Z,5.13
2019-01-26T19:47:59.102Z,5.40
2019-01-26T19:50:30.483Z,5.80
2019-01-26T19:53:03.633Z,7.60
2019-01-26T19:55:34.981Z,4.83
2019-01-26T19:58:06.347Z,4.10
2019-01-26T20:00:37.697Z,4.93
2019-01-26T20:03:08.969Z,5.03
2019-01-26T20:05:40.226Z,5.73
2019-01-26T20:08:12.206Z,4.17
2019-01-26T20:10:43.889Z,4.20
2019-01-26T20:13:15.233Z,4.30
2019-01-26T20:15:46.493Z,5.00
2019-01-26T20:18:17.856Z,4.80
2019-01-26T20:20:49.530Z,4.07
2019-01-26T20:23:23.340Z,4.17
2019-01-26T20:26:03.999Z,3.70
2019-01-26T20:28:48.208Z,3.77
2019-01-26T20:31:20.758Z,4.47
2019-01-26T20:33:52.833Z,3.17
2019-01-26T20:36:24.966Z,3.60
2019-01-26T20:38:58.060Z,4.47
2019-01-26T20:49:00.326Z,3.37
2019-01-26T20:51:31.530Z,4.40
2019-01-26T20:54:02.871Z,3.63
2019-01-26T20:56:49.975Z,4.20
2019-01-26T20:59:37.989Z,4.23
2019-01-26T21:02:10.841Z,3.97
2019-01-26T21:04:42.115Z,4.87
2019-01-26T21:07:20.314Z,4.87
2019-01-26T21:09:51.559Z,3.57
2019-01-26T21:12:22.812Z,4.57
2019-01-26T21:14:54.055Z,3.90
2019-01-26T21:17:25.340Z,4.97
2019-01-26T21:19:56.589Z,4.00
2019-01-26T21:22:28.886Z,3.53
2019-01-26T21:25:00.190Z,3.17
2019-01-26T21:27:31.446Z,3.90
2019-01-26T21:30:02.684Z,3.90
2019-01-26T21:32:33.930Z,3.60
2019-01-26T21:35:06.049Z,3.10
2019-01-26T21:37:37.325Z,4.23
2019-01-26T21:40:12.068Z,2.97
2019-01-26T21:42:43.332Z,4.20
2019-01-26T21:45:15.125Z,3.77
2019-01-26T21:47:46.472Z,4.53
2019-01-26T21:50:20.734Z,5.80
2019-01-26T21:52:52.872Z,4.20
2019-01-26T21:55:24.217Z,3.90
2019-01-26T21:57:56.772Z,5.23
2019-01-26T22:00:30.347Z,4.33
2019-01-26T22:03:02.271Z,4.73
2019-01-26T22:05:33.705Z,5.17
2019-01-26T22:08:04.945Z,5.23
2019-01-26T22:10:36.234Z,4.53
2019-01-26T22:13:07.457Z,4.97
2019-01-26T22:15:38.689Z,5.10
2019-01-26T22:18:10.764Z,4.83
2019-01-26T22:20:42.096Z,5.00
2019-01-26T22:23:13.527Z,5.33
2019-01-26T22:25:44.756Z,6.97
2019-01-26T22:28:15.979Z,5.07
2019-01-26T22:30:47.326Z,5.57
2019-01-26T22:33:18.959Z,4.53
2019-01-26T22:35:50.377Z,5.23
2019-01-26T22:38:21.596Z,6.27
2019-01-26T22:40:52.801Z,7.30
2019-01-26T22:43:24.035Z,6.30
2019-01-26T22:45:55.289Z,5.17
2019-01-26T22:48:26.485Z,6.13
2019-01-26T22:50:57.757Z,7.53
2019-01-26T22:53:29.072Z,6.53
2019-01-26T22:56:00.277Z,5.37
2019-01-26T22:58:31.541Z,6.73
2019-01-26T23:01:27.800Z,5.83
2019-01-26T23:04:33.592Z,6.03
2019-01-26T23:07:39.872Z,5.83
2019-01-26T23:11:05.296Z,5.60
2019-01-26T23:14:20.666Z,5.87
2019-01-26T23:17:34.512Z,5.53
2019-01-26T23:20:28.468Z,5.90
2019-01-26T23:23:39.435Z,5.90
2019-01-26T23:26:29.161Z,5.17
2019-01-26T23:29:53.431Z,5.20
2019-01-26T23:32:24.669Z,4.80
2019-01-26T23:34:56.004Z,4.60
2019-01-26T23:37:27.240Z,5.20
2019-01-26T23:39:58.584Z,4.60
2019-01-26T23:42:29.786Z,4.50
2019-01-26T23:45:01.434Z,3.67
2019-01-26T23:47:32.669Z,3.47
2019-01-26T23:50:05.342Z,3.77
2019-01-26T23:52:36.619Z,3.47
2019-01-26T23:55:08.409Z,4.50
2019-01-26T23:57:39.656Z,3.97
